sensor_id;sensor_type;location;lat;lon;timestamp;P1;durP1;ratioP1;P2;durP2;ratioP2
27187;SDS011;14708;50.872;5.306;2022-11-03T00:01:08;3.33;;;1.83;;
27187;SDS011;14708;50.872;5.306;2022-11-03T00:03:33;4.68;;;1.95;;
27187;SDS011;14708;50.872;5.306;2022-11-03T00:05:59;5.63;;;1.83;;
27187;SDS011;14708;50.872;5.306;2022-11-03T00:08:38;3.20;;;1.70;;
27187;SDS011;14708;50.872;5.306;2022-11-03T00:11:12;3.97;;;1.70;;
27187;SDS011;14708;50.872;5.306;2022-11-03T00:13:47;4.93;;;1.92;;
27187;SDS011;14708;50.872;5.306;2022-11-03T00:16:12;3.05;;;1.35;;
27187;SDS011;14708;50.872;5.306;2022-11-03T00:18:38;3.60;;;1.75;;
27187;SDS011;14708;50.872;5.306;2022-11-03T00:21:04;4.50;;;1.80;;
27187;SDS011;14708;50.872;5.306;2022-11-03T00:23:35;3.30;;;1.30;;
27187;SDS011;14708;50.872;5.306;2022-11-03T00:28:34;4.32;;;1.63;;
27187;SDS011;14708;50.872;5.306;2022-11-03T00:31:01;4.97;;;1.90;;
27187;SDS011;14708;50.872;5.306;2022-11-03T00:33:35;5.00;;;2.45;;
27187;SDS011;14708;50.872;5.306;2022-11-03T00:36:01;3.58;;;1.58;;
27187;SDS011;14708;50.872;5.306;2022-11-03T00:38:28;3.03;;;1.55;;
27187;SDS011;14708;50.872;5.306;2022-11-03T00:40:58;5.18;;;1.90;;
27187;SDS011;14708;50.872;5.306;2022-11-03T00:43:26;4.63;;;1.92;;
27187;SDS011;14708;50.872;5.306;2022-11-03T00:45:54;4.60;;;1.83;;
27187;SDS011;14708;50.872;5.306;2022-11-03T00:48:20;3.45;;;1.60;;
27187;SDS011;14708;50.872;5.306;2022-11-03T00:53:32;3.60;;;1.70;;
27187;SDS011;14708;50.872;5.306;2022-11-03T00:56:00;3.83;;;1.75;;
27187;SDS011;14708;50.872;5.306;2022-11-03T00:58:26;3.35;;;1.20;;
27187;SDS011;14708;50.872;5.306;2022-11-03T01:03:45;3.17;;;1.42;;
27187;SDS011;14708;50.872;5.306;2022-11-03T01:06:31;3.55;;;1.63;;
27187;SDS011;14708;50.872;5.306;2022-11-03T01:09:19;2.63;;;1.38;;
27187;SDS011;14708;50.872;5.306;2022-11-03T01:12:15;3.03;;;1.50;;
27187;SDS011;14708;50.872;5.306;2022-11-03T01:14:49;3.85;;;1.75;;
27187;SDS011;14708;50.872;5.306;2022-11-03T01:17:17;4.32;;;1.67;;
27187;SDS011;14708;50.872;5.306;2022-11-03T01:19:42;4.40;;;1.75;;
27187;SDS011;14708;50.872;5.306;2022-11-03T01:22:08;2.67;;;1.35;;
27187;SDS011;14708;50.872;5.306;2022-11-03T01:24:34;3.28;;;1.50;;
27187;SDS011;14708;50.872;5.306;2022-11-03T01:27:00;3.35;;;1.60;;
27187;SDS011;14708;50.872;5.306;2022-11-03T01:29:26;4.93;;;1.50;;
27187;SDS011;14708;50.872;5.306;2022-11-03T01:31:52;3.85;;;1.65;;
27187;SDS011;14708;50.872;5.306;2022-11-03T01:34:18;4.63;;;1.67;;
27187;SDS011;14708;50.872;5.306;2022-11-03T01:37:02;4.35;;;1.50;;
27187;SDS011;14708;50.872;5.306;2022-11-03T01:39:28;2.30;;;1.48;;
27187;SDS011;14708;50.872;5.306;2022-11-03T01:41:54;4.35;;;1.52;;
27187;SDS011;14708;50.872;5.306;2022-11-03T01:47:02;2.97;;;1.52;;
27187;SDS011;14708;50.872;5.306;2022-11-03T01:49:56;2.63;;;1.50;;
27187;SDS011;14708;50.872;5.306;2022-11-03T01:52:34;3.72;;;1.45;;
27187;SDS011;14708;50.872;5.306;2022-11-03T01:55:09;3.20;;;1.42;;
27187;SDS011;14708;50.872;5.306;2022-11-03T01:57:40;3.55;;;1.50;;
27187;SDS011;14708;50.872;5.306;2022-11-03T02:00:14;3.10;;;1.67;;
27187;SDS011;14708;50.872;5.306;2022-11-03T02:02:40;4.20;;;1.60;;
27187;SDS011;14708;50.872;5.306;2022-11-03T02:05:07;4.28;;;1.42;;
27187;SDS011;14708;50.872;5.306;2022-11-03T02:07:43;3.03;;;1.33;;
27187;SDS011;14708;50.872;5.306;2022-11-03T02:10:16;3.95;;;1.70;;
27187;SDS011;14708;50.872;5.306;2022-11-03T02:12:42;2.13;;;1.33;;
27187;SDS011;14708;50.872;5.306;2022-11-03T02:15:09;3.03;;;1.48;;
27187;SDS011;14708;50.872;5.306;2022-11-03T02:17:37;3.17;;;1.52;;
27187;SDS011;14708;50.872;5.306;2022-11-03T02:22:50;3.10;;;1.50;;
27187;SDS011;14708;50.872;5.306;2022-11-03T02:28:21;3.70;;;1.50;;
27187;SDS011;14708;50.872;5.306;2022-11-03T02:30:52;2.72;;;1.73;;
27187;SDS011;14708;50.872;5.306;2022-11-03T02:36:12;2.97;;;1.10;;
27187;SDS011;14708;50.872;5.306;2022-11-03T02:38:47;1.70;;;1.17;;
27187;SDS011;14708;50.872;5.306;2022-11-03T02:41:20;2.80;;;1.30;;
27187;SDS011;14708;50.872;5.306;2022-11-03T02:43:47;1.85;;;1.45;;
27187;SDS011;14708;50.872;5.306;2022-11-03T02:46:13;1.70;;;1.10;;
27187;SDS011;14708;50.872;5.306;2022-11-03T02:48:41;2.47;;;1.20;;
27187;SDS011;14708;50.872;5.306;2022-11-03T02:51:06;3.45;;;1.40;;
27187;SDS011;14708;50.872;5.306;2022-11-03T02:53:35;2.80;;;1.40;;
27187;SDS011;14708;50.872;5.306;2022-11-03T02:56:15;2.78;;;1.30;;
27187;SDS011;14708;50.872;5.306;2022-11-03T02:58:48;4.03;;;1.40;;
27187;SDS011;14708;50.872;5.306;2022-11-03T03:04:10;2.83;;;1.40;;
27187;SDS011;14708;50.872;5.306;2022-11-03T03:06:55;2.05;;;1.23;;
27187;SDS011;14708;50.872;5.306;2022-11-03T03:09:27;2.20;;;1.38;;
27187;SDS011;14708;50.872;5.306;2022-11-03T03:11:57;2.72;;;1.30;;
27187;SDS011;14708;50.872;5.306;2022-11-03T03:14:27;2.63;;;1.47;;
27187;SDS011;14708;50.872;5.306;2022-11-03T03:16:59;3.90;;;1.60;;
27187;SDS011;14708;50.872;5.306;2022-11-03T03:19:48;3.85;;;1.42;;
27187;SDS011;14708;50.872;5.306;2022-11-03T03:22:27;2.83;;;1.65;;
27187;SDS011;14708;50.872;5.306;2022-11-03T03:25:00;3.20;;;1.48;;
27187;SDS011;14708;50.872;5.306;2022-11-03T03:27:38;2.38;;;1.38;;
27187;SDS011;14708;50.872;5.306;2022-11-03T03:30:07;2.95;;;1.45;;
27187;SDS011;14708;50.872;5.306;2022-11-03T03:32:35;3.33;;;1.30;;
27187;SDS011;14708;50.872;5.306;2022-11-03T03:35:12;2.55;;;1.38;;
27187;SDS011;14708;50.872;5.306;2022-11-03T03:37:45;2.53;;;1.13;;
27187;SDS011;14708;50.872;5.306;2022-11-03T03:40:14;2.47;;;1.10;;
27187;SDS011;14708;50.872;5.306;2022-11-03T03:42:45;2.88;;;1.40;;
27187;SDS011;14708;50.872;5.306;2022-11-03T03:47:41;3.28;;;1.40;;
27187;SDS011;14708;50.872;5.306;2022-11-03T03:50:07;3.72;;;1.60;;
27187;SDS011;14708;50.872;5.306;2022-11-03T03:52:33;2.17;;;1.40;;
27187;SDS011;14708;50.872;5.306;2022-11-03T03:55:00;1.55;;;1.20;;
27187;SDS011;14708;50.872;5.306;2022-11-03T03:57:25;2.20;;;1.45;;
27187;SDS011;14708;50.872;5.306;2022-11-03T03:59:53;3.55;;;1.52;;
27187;SDS011;14708;50.872;5.306;2022-11-03T04:02:19;2.38;;;1.10;;
27187;SDS011;14708;50.872;5.306;2022-11-03T04:04:45;2.30;;;1.30;;
27187;SDS011;14708;50.872;5.306;2022-11-03T04:07:10;2.83;;;1.23;;
27187;SDS011;14708;50.872;5.306;2022-11-03T04:09:54;2.35;;;1.20;;
27187;SDS011;14708;50.872;5.306;2022-11-03T04:12:22;3.47;;;1.30;;
27187;SDS011;14708;50.872;5.306;2022-11-03T04:15:08;2.88;;;1.25;;
27187;SDS011;14708;50.872;5.306;2022-11-03T04:17:55;3.53;;;1.42;;
27187;SDS011;14708;50.872;5.306;2022-11-03T04:20:39;4.70;;;1.83;;
27187;SDS011;14708;50.872;5.306;2022-11-03T04:23:24;1.98;;;1.25;;
27187;SDS011;14708;50.872;5.306;2022-11-03T04:25:51;4.40;;;1.63;;
27187;SDS011;14708;50.872;5.306;2022-11-03T04:28:18;1.55;;;1.20;;
27187;SDS011;14708;50.872;5.306;2022-11-03T04:30:44;1.42;;;0.98;;
27187;SDS011;14708;50.872;5.306;2022-11-03T04:33:19;3.92;;;1.75;;
27187;SDS011;14708;50.872;5.306;2022-11-03T04:35:46;1.90;;;1.30;;
27187;SDS011;14708;50.872;5.306;2022-11-03T04:40:41;2.38;;;1.50;;
27187;SDS011;14708;50.872;5.306;2022-11-03T04:43:32;1.90;;;1.30;;
27187;SDS011;14708;50.872;5.306;2022-11-03T04:45:59;2.88;;;1.38;;
27187;SDS011;14708;50.872;5.306;2022-11-03T04:48:26;3.35;;;1.20;;
27187;SDS011;14708;50.872;5.306;2022-11-03T04:50:54;2.55;;;1.20;;
27187;SDS011;14708;50.872;5.306;2022-11-03T04:53:23;3.05;;;1.45;;
27187;SDS011;14708;50.872;5.306;2022-11-03T04:55:52;1.98;;;1.33;;
27187;SDS011;14708;50.872;5.306;2022-11-03T04:58:22;4.22;;;1.42;;
27187;SDS011;14708;50.872;5.306;2022-11-03T05:00:52;2.22;;;1.50;;
27187;SDS011;14708;50.872;5.306;2022-11-03T05:03:21;2.05;;;1.30;;
27187;SDS011;14708;50.872;5.306;2022-11-03T05:05:48;2.40;;;1.40;;
27187;SDS011;14708;50.872;5.306;2022-11-03T05:08:18;2.25;;;1.00;;
27187;SDS011;14708;50.872;5.306;2022-11-03T05:10:47;2.42;;;1.35;;
27187;SDS011;14708;50.872;5.306;2022-11-03T05:13:18;3.25;;;1.40;;
27187;SDS011;14708;50.872;5.306;2022-11-03T05:15:48;2.88;;;1.60;;
27187;SDS011;14708;50.872;5.306;2022-11-03T05:18:26;2.45;;;1.20;;
27187;SDS011;14708;50.872;5.306;2022-11-03T05:20:56;1.45;;;1.27;;
27187;SDS011;14708;50.872;5.306;2022-11-03T05:23:28;2.30;;;1.33;;
27187;SDS011;14708;50.872;5.306;2022-11-03T05:26:00;1.58;;;1.20;;
27187;SDS011;14708;50.872;5.306;2022-11-03T05:28:36;2.13;;;1.30;;
27187;SDS011;14708;50.872;5.306;2022-11-03T05:31:19;4.28;;;1.23;;
27187;SDS011;14708;50.872;5.306;2022-11-03T05:33:51;2.30;;;1.20;;
27187;SDS011;14708;50.872;5.306;2022-11-03T05:36:21;2.55;;;1.13;;
27187;SDS011;14708;50.872;5.306;2022-11-03T05:38:48;3.95;;;1.25;;
27187;SDS011;14708;50.872;5.306;2022-11-03T05:41:20;2.03;;;1.02;;
27187;SDS011;14708;50.872;5.306;2022-11-03T05:43:52;1.95;;;1.30;;
27187;SDS011;14708;50.872;5.306;2022-11-03T05:46:25;3.80;;;1.70;;
27187;SDS011;14708;50.872;5.306;2022-11-03T05:48:54;2.03;;;1.23;;
27187;SDS011;14708;50.872;5.306;2022-11-03T05:51:22;1.98;;;1.20;;
27187;SDS011;14708;50.872;5.306;2022-11-03T05:53:52;1.80;;;1.10;;
27187;SDS011;14708;50.872;5.306;2022-11-03T05:56:22;1.42;;;1.13;;
27187;SDS011;14708;50.872;5.306;2022-11-03T05:58:50;2.15;;;1.10;;
27187;SDS011;14708;50.872;5.306;2022-11-03T06:03:49;3.33;;;1.13;;
27187;SDS011;14708;50.872;5.306;2022-11-03T06:06:16;2.15;;;1.23;;
27187;SDS011;14708;50.872;5.306;2022-11-03T06:08:47;1.70;;;1.02;;
27187;SDS011;14708;50.872;5.306;2022-11-03T06:11:26;2.03;;;1.27;;
27187;SDS011;14708;50.872;5.306;2022-11-03T06:13:56;1.77;;;0.90;;
27187;SDS011;14708;50.872;5.306;2022-11-03T06:16:30;2.83;;;1.30;;
27187;SDS011;14708;50.872;5.306;2022-11-03T06:18:58;1.95;;;1.23;;
27187;SDS011;14708;50.872;5.306;2022-11-03T06:21:25;2.75;;;1.23;;
27187;SDS011;14708;50.872;5.306;2022-11-03T06:23:51;2.47;;;1.30;;
27187;SDS011;14708;50.872;5.306;2022-11-03T06:26:23;2.70;;;1.10;;
27187;SDS011;14708;50.872;5.306;2022-11-03T06:28:50;2.88;;;1.00;;
27187;SDS011;14708;50.872;5.306;2022-11-03T06:31:19;4.53;;;1.42;;
27187;SDS011;14708;50.872;5.306;2022-11-03T06:33:50;2.13;;;1.17;;
27187;SDS011;14708;50.872;5.306;2022-11-03T06:36:26;1.88;;;1.20;;
27187;SDS011;14708;50.872;5.306;2022-11-03T06:38:56;2.03;;;1.13;;
27187;SDS011;14708;50.872;5.306;2022-11-03T06:41:26;2.00;;;1.10;;
27187;SDS011;14708;50.872;5.306;2022-11-03T06:43:55;2.42;;;1.17;;
27187;SDS011;14708;50.872;5.306;2022-11-03T06:46:25;2.30;;;1.40;;
27187;SDS011;14708;50.872;5.306;2022-11-03T06:48:51;2.10;;;1.10;;
27187;SDS011;14708;50.872;5.306;2022-11-03T06:51:19;2.58;;;1.05;;
27187;SDS011;14708;50.872;5.306;2022-11-03T06:53:51;1.40;;;0.87;;
27187;SDS011;14708;50.872;5.306;2022-11-03T06:56:19;2.92;;;1.17;;
27187;SDS011;14708;50.872;5.306;2022-11-03T06:58:47;4.55;;;1.50;;
27187;SDS011;14708;50.872;5.306;2022-11-03T07:03:47;6.55;;;1.80;;
27187;SDS011;14708;50.872;5.306;2022-11-03T07:08:46;11.80;;;2.25;;
27187;SDS011;14708;50.872;5.306;2022-11-03T07:11:15;11.50;;;3.55;;
27187;SDS011;14708;50.872;5.306;2022-11-03T07:16:22;8.82;;;2.50;;
27187;SDS011;14708;50.872;5.306;2022-11-03T07:18:48;11.73;;;3.17;;
27187;SDS011;14708;50.872;5.306;2022-11-03T07:23:57;15.80;;;3.65;;
27187;SDS011;14708;50.872;5.306;2022-11-03T07:26:25;9.65;;;2.53;;
27187;SDS011;14708;50.872;5.306;2022-11-03T07:28:51;9.52;;;2.72;;
27187;SDS011;14708;50.872;5.306;2022-11-03T07:31:19;11.73;;;3.00;;
27187;SDS011;14708;50.872;5.306;2022-11-03T07:33:54;7.72;;;2.45;;
27187;SDS011;14708;50.872;5.306;2022-11-03T07:36:23;15.27;;;3.58;;
27187;SDS011;14708;50.872;5.306;2022-11-03T07:38:51;13.45;;;2.83;;
27187;SDS011;14708;50.872;5.306;2022-11-03T07:41:19;10.98;;;2.50;;
27187;SDS011;14708;50.872;5.306;2022-11-03T07:43:55;9.00;;;2.60;;
27187;SDS011;14708;50.872;5.306;2022-11-03T07:46:22;10.27;;;2.83;;
27187;SDS011;14708;50.872;5.306;2022-11-03T07:48:50;11.75;;;2.97;;
27187;SDS011;14708;50.872;5.306;2022-11-03T07:51:30;16.58;;;3.60;;
27187;SDS011;14708;50.872;5.306;2022-11-03T07:56:41;13.00;;;2.80;;
27187;SDS011;14708;50.872;5.306;2022-11-03T08:01:43;8.45;;;2.88;;
27187;SDS011;14708;50.872;5.306;2022-11-03T08:06:44;11.93;;;3.30;;
27187;SDS011;14708;50.872;5.306;2022-11-03T08:09:10;13.75;;;3.28;;
27187;SDS011;14708;50.872;5.306;2022-11-03T08:11:36;13.10;;;2.65;;
27187;SDS011;14708;50.872;5.306;2022-11-03T08:14:02;234.50;;;37.20;;
27187;SDS011;14708;50.872;5.306;2022-11-03T08:16:27;44.97;;;8.10;;
27187;SDS011;14708;50.872;5.306;2022-11-03T08:18:53;77.47;;;16.10;;
27187;SDS011;14708;50.872;5.306;2022-11-03T08:21:19;36.25;;;7.93;;
27187;SDS011;14708;50.872;5.306;2022-11-03T08:23:44;38.38;;;7.28;;
27187;SDS011;14708;50.872;5.306;2022-11-03T08:26:10;46.42;;;8.35;;
27187;SDS011;14708;50.872;5.306;2022-11-03T08:28:35;38.97;;;8.68;;
27187;SDS011;14708;50.872;5.306;2022-11-03T08:31:01;45.20;;;9.18;;
27187;SDS011;14708;50.872;5.306;2022-11-03T08:33:32;36.65;;;9.05;;
27187;SDS011;14708;50.872;5.306;2022-11-03T08:35:59;41.08;;;8.15;;
27187;SDS011;14708;50.872;5.306;2022-11-03T08:38:26;39.00;;;10.20;;
27187;SDS011;14708;50.872;5.306;2022-11-03T08:40:55;41.70;;;9.25;;
27187;SDS011;14708;50.872;5.306;2022-11-03T08:43:22;40.55;;;10.02;;
27187;SDS011;14708;50.872;5.306;2022-11-03T08:45:48;39.50;;;8.82;;
27187;SDS011;14708;50.872;5.306;2022-11-03T08:48:18;34.20;;;8.93;;
27187;SDS011;14708;50.872;5.306;2022-11-03T08:50:48;42.15;;;9.20;;
27187;SDS011;14708;50.872;5.306;2022-11-03T08:53:18;39.22;;;8.75;;
27187;SDS011;14708;50.872;5.306;2022-11-03T08:55:47;32.38;;;8.98;;
27187;SDS011;14708;50.872;5.306;2022-11-03T08:58:13;30.00;;;8.48;;
27187;SDS011;14708;50.872;5.306;2022-11-03T09:00:39;36.83;;;8.93;;
27187;SDS011;14708;50.872;5.306;2022-11-03T09:03:04;36.13;;;9.52;;
27187;SDS011;14708;50.872;5.306;2022-11-03T09:05:30;35.00;;;8.52;;
27187;SDS011;14708;50.872;5.306;2022-11-03T09:07:55;31.58;;;7.97;;
27187;SDS011;14708;50.872;5.306;2022-11-03T09:10:21;26.95;;;9.15;;
27187;SDS011;14708;50.872;5.306;2022-11-03T09:12:47;33.25;;;8.48;;
27187;SDS011;14708;50.872;5.306;2022-11-03T09:15:12;30.40;;;8.05;;
27187;SDS011;14708;50.872;5.306;2022-11-03T09:17:38;30.70;;;9.10;;
27187;SDS011;14708;50.872;5.306;2022-11-03T09:20:04;34.75;;;9.15;;
27187;SDS011;14708;50.872;5.306;2022-11-03T09:22:30;32.97;;;8.60;;
27187;SDS011;14708;50.872;5.306;2022-11-03T09:24:56;30.70;;;7.85;;
27187;SDS011;14708;50.872;5.306;2022-11-03T09:27:22;26.98;;;8.27;;
27187;SDS011;14708;50.872;5.306;2022-11-03T09:29:47;29.55;;;8.15;;
27187;SDS011;14708;50.872;5.306;2022-11-03T09:32:13;29.75;;;8.20;;
27187;SDS011;14708;50.872;5.306;2022-11-03T09:34:39;30.25;;;7.82;;
27187;SDS011;14708;50.872;5.306;2022-11-03T09:37:04;28.58;;;7.28;;
27187;SDS011;14708;50.872;5.306;2022-11-03T09:39:30;26.42;;;7.60;;
27187;SDS011;14708;50.872;5.306;2022-11-03T09:41:56;34.63;;;7.95;;
27187;SDS011;14708;50.872;5.306;2022-11-03T09:44:23;23.73;;;7.32;;
27187;SDS011;14708;50.872;5.306;2022-11-03T09:46:49;30.88;;;8.10;;
27187;SDS011;14708;50.872;5.306;2022-11-03T09:49:15;23.40;;;7.28;;
27187;SDS011;14708;50.872;5.306;2022-11-03T09:51:43;22.65;;;6.53;;
27187;SDS011;14708;50.872;5.306;2022-11-03T09:54:10;25.27;;;6.80;;
27187;SDS011;14708;50.872;5.306;2022-11-03T09:56:38;25.10;;;6.40;;
27187;SDS011;14708;50.872;5.306;2022-11-03T10:01:56;23.38;;;6.53;;
27187;SDS011;14708;50.872;5.306;2022-11-03T10:04:24;28.70;;;8.35;;
27187;SDS011;14708;50.872;5.306;2022-11-03T10:06:53;24.73;;;7.25;;
27187;SDS011;14708;50.872;5.306;2022-11-03T10:09:22;23.52;;;6.38;;
27187;SDS011;14708;50.872;5.306;2022-11-03T10:11:50;19.17;;;6.00;;
27187;SDS011;14708;50.872;5.306;2022-11-03T10:14:18;20.43;;;6.20;;
27187;SDS011;14708;50.872;5.306;2022-11-03T10:16:48;26.85;;;7.35;;
27187;SDS011;14708;50.872;5.306;2022-11-03T10:19:24;18.33;;;6.13;;
27187;SDS011;14708;50.872;5.306;2022-11-03T10:21:55;24.95;;;7.43;;
27187;SDS011;14708;50.872;5.306;2022-11-03T10:24:20;22.02;;;6.13;;
27187;SDS011;14708;50.872;5.306;2022-11-03T10:26:47;22.30;;;6.78;;
27187;SDS011;14708;50.872;5.306;2022-11-03T10:29:33;20.50;;;5.85;;
27187;SDS011;14708;50.872;5.306;2022-11-03T10:31:58;23.05;;;6.45;;
27187;SDS011;14708;50.872;5.306;2022-11-03T10:37:15;23.30;;;6.07;;
27187;SDS011;14708;50.872;5.306;2022-11-03T10:39:49;18.08;;;6.00;;
27187;SDS011;14708;50.872;5.306;2022-11-03T10:42:16;19.50;;;6.13;;
27187;SDS011;14708;50.872;5.306;2022-11-03T10:44:43;20.80;;;5.47;;
27187;SDS011;14708;50.872;5.306;2022-11-03T10:47:09;18.00;;;6.35;;
27187;SDS011;14708;50.872;5.306;2022-11-03T10:50:22;20.40;;;5.68;;
27187;SDS011;14708;50.872;5.306;2022-11-03T10:52:50;19.50;;;6.28;;
27187;SDS011;14708;50.872;5.306;2022-11-03T10:55:17;22.17;;;6.20;;
27187;SDS011;14708;50.872;5.306;2022-11-03T10:57:43;14.70;;;5.45;;
27187;SDS011;14708;50.872;5.306;2022-11-03T11:00:13;14.65;;;5.45;;
27187;SDS011;14708;50.872;5.306;2022-11-03T11:02:43;18.70;;;5.72;;
27187;SDS011;14708;50.872;5.306;2022-11-03T11:05:14;18.70;;;5.40;;
27187;SDS011;14708;50.872;5.306;2022-11-03T11:07:43;19.75;;;5.82;;
27187;SDS011;14708;50.872;5.306;2022-11-03T11:10:14;18.17;;;5.85;;
27187;SDS011;14708;50.872;5.306;2022-11-03T11:13:01;15.13;;;6.03;;
27187;SDS011;14708;50.872;5.306;2022-11-03T11:15:42;15.15;;;4.38;;
27187;SDS011;14708;50.872;5.306;2022-11-03T11:18:08;16.73;;;5.50;;
27187;SDS011;14708;50.872;5.306;2022-11-03T11:20:38;18.77;;;5.60;;
27187;SDS011;14708;50.872;5.306;2022-11-03T11:28:33;17.90;;;5.70;;
27187;SDS011;14708;50.872;5.306;2022-11-03T11:30:59;21.58;;;5.35;;
27187;SDS011;14708;50.872;5.306;2022-11-03T11:33:26;16.52;;;5.80;;
27187;SDS011;14708;50.872;5.306;2022-11-03T11:41:09;19.20;;;5.30;;
27187;SDS011;14708;50.872;5.306;2022-11-03T11:43:35;16.20;;;4.50;;
27187;SDS011;14708;50.872;5.306;2022-11-03T11:51:31;18.13;;;5.25;;
27187;SDS011;14708;50.872;5.306;2022-11-03T11:54:03;14.63;;;5.05;;
27187;SDS011;14708;50.872;5.306;2022-11-03T11:56:31;19.83;;;5.78;;
27187;SDS011;14708;50.872;5.306;2022-11-03T11:58:57;12.13;;;4.70;;
27187;SDS011;14708;50.872;5.306;2022-11-03T12:01:28;15.98;;;5.70;;
27187;SDS011;14708;50.872;5.306;2022-11-03T12:03:59;18.55;;;5.28;;
27187;SDS011;14708;50.872;5.306;2022-11-03T12:06:39;15.13;;;4.70;;
27187;SDS011;14708;50.872;5.306;2022-11-03T12:09:07;16.02;;;5.57;;
27187;SDS011;14708;50.872;5.306;2022-11-03T12:11:43;12.00;;;5.13;;
27187;SDS011;14708;50.872;5.306;2022-11-03T12:19:46;14.32;;;4.80;;
27187;SDS011;14708;50.872;5.306;2022-11-03T12:25:05;12.35;;;4.47;;
27187;SDS011;14708;50.872;5.306;2022-11-03T12:27:54;11.93;;;4.78;;
27187;SDS011;14708;50.872;5.306;2022-11-03T12:30:20;11.25;;;4.40;;
27187;SDS011;14708;50.872;5.306;2022-11-03T12:32:46;12.25;;;4.18;;
27187;SDS011;14708;50.872;5.306;2022-11-03T12:35:12;10.75;;;4.45;;
27187;SDS011;14708;50.872;5.306;2022-11-03T12:37:38;11.63;;;4.28;;
27187;SDS011;14708;50.872;5.306;2022-11-03T12:40:04;13.07;;;4.70;;
27187;SDS011;14708;50.872;5.306;2022-11-03T12:42:31;9.50;;;4.30;;
27187;SDS011;14708;50.872;5.306;2022-11-03T12:44:57;11.23;;;5.05;;
27187;SDS011;14708;50.872;5.306;2022-11-03T12:47:22;11.40;;;3.80;;
27187;SDS011;14708;50.872;5.306;2022-11-03T12:49:48;10.65;;;4.38;;
27187;SDS011;14708;50.872;5.306;2022-11-03T12:52:14;9.65;;;3.85;;
27187;SDS011;14708;50.872;5.306;2022-11-03T12:54:39;12.48;;;4.60;;
27187;SDS011;14708;50.872;5.306;2022-11-03T12:57:06;10.50;;;4.72;;
27187;SDS011;14708;50.872;5.306;2022-11-03T12:59:31;11.38;;;4.43;;
27187;SDS011;14708;50.872;5.306;2022-11-03T13:01:57;9.57;;;4.50;;
27187;SDS011;14708;50.872;5.306;2022-11-03T13:04:23;13.20;;;4.78;;
27187;SDS011;14708;50.872;5.306;2022-11-03T13:06:48;10.13;;;4.60;;
27187;SDS011;14708;50.872;5.306;2022-11-03T13:09:14;11.25;;;4.50;;
27187;SDS011;14708;50.872;5.306;2022-11-03T13:11:39;12.13;;;4.50;;
27187;SDS011;14708;50.872;5.306;2022-11-03T13:14:23;10.00;;;4.30;;
27187;SDS011;14708;50.872;5.306;2022-11-03T13:16:50;11.20;;;4.35;;
27187;SDS011;14708;50.872;5.306;2022-11-03T13:19:16;11.38;;;3.95;;
27187;SDS011;14708;50.872;5.306;2022-11-03T13:21:41;10.63;;;3.60;;
27187;SDS011;14708;50.872;5.306;2022-11-03T13:24:07;11.70;;;3.95;;
27187;SDS011;14708;50.872;5.306;2022-11-03T13:26:33;11.38;;;4.43;;
27187;SDS011;14708;50.872;5.306;2022-11-03T13:28:58;12.48;;;3.97;;
27187;SDS011;14708;50.872;5.306;2022-11-03T13:31:24;10.00;;;3.97;;
27187;SDS011;14708;50.872;5.306;2022-11-03T13:33:49;12.10;;;4.40;;
27187;SDS011;14708;50.872;5.306;2022-11-03T13:36:16;10.30;;;4.57;;
27187;SDS011;14708;50.872;5.306;2022-11-03T13:38:41;9.25;;;4.03;;
27187;SDS011;14708;50.872;5.306;2022-11-03T13:41:07;9.13;;;3.90;;
27187;SDS011;14708;50.872;5.306;2022-11-03T13:43:33;9.75;;;4.07;;
27187;SDS011;14708;50.872;5.306;2022-11-03T13:45:58;7.93;;;3.97;;
27187;SDS011;14708;50.872;5.306;2022-11-03T13:48:26;11.32;;;4.15;;
27187;SDS011;14708;50.872;5.306;2022-11-03T13:50:52;10.07;;;4.25;;
27187;SDS011;14708;50.872;5.306;2022-11-03T13:53:28;10.65;;;3.53;;
27187;SDS011;14708;50.872;5.306;2022-11-03T13:55:54;9.05;;;4.15;;
27187;SDS011;14708;50.872;5.306;2022-11-03T13:58:19;8.35;;;3.30;;
27187;SDS011;14708;50.872;5.306;2022-11-03T14:00:45;8.00;;;3.35;;
27187;SDS011;14708;50.872;5.306;2022-11-03T14:03:11;10.02;;;3.75;;
27187;SDS011;14708;50.872;5.306;2022-11-03T14:05:36;13.13;;;3.70;;
27187;SDS011;14708;50.872;5.306;2022-11-03T14:08:02;10.55;;;3.58;;
27187;SDS011;14708;50.872;5.306;2022-11-03T14:10:29;9.43;;;4.15;;
27187;SDS011;14708;50.872;5.306;2022-11-03T14:12:54;9.55;;;3.70;;
27187;SDS011;14708;50.872;5.306;2022-11-03T14:15:20;11.90;;;3.58;;
27187;SDS011;14708;50.872;5.306;2022-11-03T14:17:46;9.60;;;3.78;;
27187;SDS011;14708;50.872;5.306;2022-11-03T14:20:12;10.20;;;3.20;;
27187;SDS011;14708;50.872;5.306;2022-11-03T14:22:38;10.18;;;3.60;;
27187;SDS011;14708;50.872;5.306;2022-11-03T14:25:04;13.77;;;4.65;;
27187;SDS011;14708;50.872;5.306;2022-11-03T14:27:31;18.35;;;5.03;;
27187;SDS011;14708;50.872;5.306;2022-11-03T14:29:57;13.27;;;4.22;;
27187;SDS011;14708;50.872;5.306;2022-11-03T14:32:22;15.55;;;4.47;;
27187;SDS011;14708;50.872;5.306;2022-11-03T14:34:53;13.15;;;4.78;;
27187;SDS011;14708;50.872;5.306;2022-11-03T14:37:18;10.93;;;4.20;;
27187;SDS011;14708;50.872;5.306;2022-11-03T14:39:44;10.02;;;3.50;;
27187;SDS011;14708;50.872;5.306;2022-11-03T14:42:11;12.05;;;4.10;;
27187;SDS011;14708;50.872;5.306;2022-11-03T14:44:41;10.77;;;3.75;;
27187;SDS011;14708;50.872;5.306;2022-11-03T14:47:09;12.00;;;4.13;;
27187;SDS011;14708;50.872;5.306;2022-11-03T14:49:35;14.90;;;3.33;;
27187;SDS011;14708;50.872;5.306;2022-11-03T14:52:01;7.85;;;2.83;;
27187;SDS011;14708;50.872;5.306;2022-11-03T14:54:28;10.02;;;3.05;;
27187;SDS011;14708;50.872;5.306;2022-11-03T14:56:55;14.68;;;3.42;;
27187;SDS011;14708;50.872;5.306;2022-11-03T14:59:21;16.40;;;3.90;;
27187;SDS011;14708;50.872;5.306;2022-11-03T15:01:47;25.48;;;4.47;;
27187;SDS011;14708;50.872;5.306;2022-11-03T15:04:15;16.45;;;3.78;;
27187;SDS011;14708;50.872;5.306;2022-11-03T15:06:41;9.80;;;3.38;;
27187;SDS011;14708;50.872;5.306;2022-11-03T15:09:07;16.08;;;4.13;;
27187;SDS011;14708;50.872;5.306;2022-11-03T15:11:33;13.63;;;4.60;;
27187;SDS011;14708;50.872;5.306;2022-11-03T15:13:59;17.63;;;4.72;;
27187;SDS011;14708;50.872;5.306;2022-11-03T15:16:27;15.30;;;4.05;;
27187;SDS011;14708;50.872;5.306;2022-11-03T15:18:55;13.85;;;3.95;;
27187;SDS011;14708;50.872;5.306;2022-11-03T15:21:21;15.02;;;4.10;;
27187;SDS011;14708;50.872;5.306;2022-11-03T15:23:46;13.90;;;3.95;;
27187;SDS011;14708;50.872;5.306;2022-11-03T15:26:12;13.88;;;3.90;;
27187;SDS011;14708;50.872;5.306;2022-11-03T15:28:38;16.90;;;4.85;;
27187;SDS011;14708;50.872;5.306;2022-11-03T15:31:04;17.13;;;3.92;;
27187;SDS011;14708;50.872;5.306;2022-11-03T15:33:30;11.43;;;3.65;;
27187;SDS011;14708;50.872;5.306;2022-11-03T15:35:55;11.85;;;4.20;;
27187;SDS011;14708;50.872;5.306;2022-11-03T15:38:21;14.45;;;4.07;;
27187;SDS011;14708;50.872;5.306;2022-11-03T15:40:46;15.27;;;4.03;;
27187;SDS011;14708;50.872;5.306;2022-11-03T15:43:12;18.88;;;4.07;;
27187;SDS011;14708;50.872;5.306;2022-11-03T15:45:38;16.25;;;4.10;;
27187;SDS011;14708;50.872;5.306;2022-11-03T15:48:04;10.63;;;3.22;;
27187;SDS011;14708;50.872;5.306;2022-11-03T15:50:30;13.35;;;4.10;;
27187;SDS011;14708;50.872;5.306;2022-11-03T15:52:56;13.98;;;3.85;;
27187;SDS011;14708;50.872;5.306;2022-11-03T15:55:21;14.18;;;4.00;;
27187;SDS011;14708;50.872;5.306;2022-11-03T15:57:47;11.05;;;4.05;;
27187;SDS011;14708;50.872;5.306;2022-11-03T16:00:13;13.73;;;4.20;;
27187;SDS011;14708;50.872;5.306;2022-11-03T16:02:40;11.30;;;3.97;;
27187;SDS011;14708;50.872;5.306;2022-11-03T16:05:13;12.35;;;3.50;;
27187;SDS011;14708;50.872;5.306;2022-11-03T16:07:39;11.48;;;3.83;;
27187;SDS011;14708;50.872;5.306;2022-11-03T16:10:04;16.75;;;3.97;;